• Join FlightAware (Why Join?)
  • Login
  • US Flag 
05:37AM EDT


 

Airport Tracker/Info


-or-


 

Live Flight TrackerFlight Track Log ✈ CES2727 ✈ 07-Jul-2013 ✈ ZSNJ / NKG - ZGSD / ZUH

Flight Track Log - Related Links

Times and Time Zones

All times are in EDT time to prevent confusion due to time zone crossing. See the CES2727 flight status page for this flight to view local times or setup timezone preferences in your user account.

Time Position Orientation Groundspeed Altitude Reporting Facility
EDT Latitude Longitude Course Direction KTS MPH feet Rate Location/Type
08:37PM 25.6640 114.7500 205° Southwest 472 543 32,100  Level FlightAware
08:38PM 25.5780 114.7050 205° Southwest 471 542 32,100  Level FlightAware
08:39PM 25.5000 114.6640 205° Southwest 471 542 32,100  Level FlightAware
08:39PM 25.4270 114.6260 205° Southwest 472 543 32,100  Level FlightAware
08:40PM 25.3150 114.5680 205° Southwest 472 543 32,100  Level FlightAware
08:41PM 25.1910 114.5030 205° Southwest 471 542 32,100 -360 Level FlightAware
08:42PM 25.1040 114.4580 205° Southwest 468 539 31,500 -960 Descending FlightAware
08:43PM 25.0290 114.4190 205° Southwest 472 543 30,800 -1,080 Descending FlightAware
08:43PM 24.9430 114.3750 205° Southwest 472 543 30,100 -960 Descending FlightAware
08:44PM 24.8640 114.3340 205° Southwest 467 537 29,500 -960 Descending FlightAware
08:45PM 24.7780 114.2900 205° Southwest 459 528 28,800 -1,500 Descending FlightAware
08:46PM 24.6940 114.2470 205° Southwest 446 513 27,400 -2,220 Descending FlightAware
08:46PM 24.6180 114.2070 206° Southwest 436 502 25,700 -2,280 Descending FlightAware
08:47PM 24.5470 114.1710 205° Southwest 420 483 24,300 -1,440 Descending FlightAware
08:48PM 24.4820 114.1380 205° Southwest 415 478 23,800 -420 Descending FlightAware
08:48PM 24.4270 114.1100 205° Southwest 415 478 23,800  Level FlightAware
08:49PM 24.3560 114.0730 205° Southwest 415 478 23,800  Level FlightAware
08:50PM 24.3030 114.0460 205° Southwest 415 478 23,800  Level FlightAware
08:50PM 24.2500 114.0190 205° Southwest 415 478 23,800  Level FlightAware
08:51PM 24.1790 113.9830 205° Southwest 415 478 23,800 -4,800 Level FlightAware
08:52PM 24.0690 113.9080 212° Southwest 365 420 15,700 -4,980 Descending FlightAware
08:53PM 24.0140 113.8540 222° Southwest 362 417 15,700  Level FlightAware
08:53PM 23.9640 113.8050 222° Southwest 364 419 15,700  Level FlightAware
08:54PM 23.9060 113.7480 222° Southwest 363 418 15,700  Level FlightAware
08:55PM 23.8570 113.7000 222° Southwest 365 420 15,700  Level FlightAware
08:55PM 23.8100 113.6540 222° Southwest 363 418 15,700  Level FlightAware
08:56PM 23.7590 113.6040 222° Southwest 366 421 15,700  Level FlightAware
08:57PM 23.7070 113.5540 221° Southwest 361 415 15,700  Level FlightAware
08:57PM 23.6630 113.5100 222° Southwest 364 419 15,700  Level FlightAware
08:58PM 23.6060 113.4550 221° Southwest 363 418 15,700  Level FlightAware
08:59PM 23.5570 113.4060 223° Southwest 361 415 15,700  Level FlightAware
08:59PM 23.5220 113.3810 213° Southwest 359 413 15,700 -1,020 Level FlightAware
09:00PM 23.4480 113.3520 200° South 369 425 14,500 -1,440 Descending FlightAware
09:01PM 23.3890 113.3300 199° South 348 400 13,700 -1,620 Descending FlightAware
09:01PM 23.3240 113.3050 199° South 336 387 12,300 -1,500 Descending FlightAware
09:02PM 23.2700 113.2890 195° South 343 395 11,800 -540 Descending FlightAware
09:02PM 23.2310 113.3010 164° South 344 396 11,800  Level FlightAware
09:03PM 23.1670 113.3340 155° Southeast 341 392 11,800 -120 Level FlightAware
09:04PM 23.1110 113.3640 154° Southeast 338 389 11,700 -420 Descending FlightAware
09:04PM 23.0600 113.3900 155° Southeast 339 390 11,300 -720 Descending FlightAware
09:05PM 22.9990 113.4220 154° Southeast 304 350 10,800 -600 Descending FlightAware
09:05PM 22.9650 113.4350 161° South 287 330 10,600 -1,080 Descending FlightAware
09:06PM 22.9110 113.4380 177° South 279 321 9,600 -1,500 Descending FlightAware
09:06PM 22.8890 113.4390 178° South 279 321 9,200 -900 Descending FlightAware
09:07PM 22.8600 113.4400 178° South 281 323 9,000 -300 Descending FlightAware
09:07PM 22.8380 113.4410 178° South 281 323 9,000  Level FlightAware
09:08PM 22.8010 113.4430 177° South 281 323 9,000  Level FlightAware
09:08PM 22.7870 113.4430 180° South 281 323 9,000  Level FlightAware
09:08PM 22.7490 113.4450 177° South 278 320 9,000 -180 Level FlightAware
09:08PM 22.7310 113.4460 177° South 277 319 8,900 -660 Descending FlightAware
09:09PM 22.6990 113.4470 178° South 278 320 8,600 -840 Descending FlightAware
09:09PM 22.6670 113.4480 178° South 276 318 8,200 -840 Descending FlightAware
09:10PM 22.6320 113.4500 177° South 274 315 7,900 -780 Descending FlightAware
09:10PM 22.6150 113.4500 180° South 272 313 7,700 -780 Descending FlightAware
09:10PM 22.5810 113.4520 177° South 269 310 7,400 -780 Descending FlightAware
09:11PM 22.5470 113.4530 178° South 266 306 7,000 -480 Descending FlightAware
09:11PM 22.5170 113.4540 178° South 266 306 7,000 -240 Level FlightAware
09:12PM 22.4790 113.4560 177° South 263 303 6,800 -600 Descending FlightAware
09:12PM 22.4650 113.4570 176° South 265 305 6,600 -1,200 Descending FlightAware
09:12PM 22.4300 113.4580 178° South 267 307 6,000 -1,260 Descending FlightAware
09:13PM 22.4110 113.4590 177° South 264 304 5,700 -1,260 Descending FlightAware
09:13PM 22.3760 113.4600 178° South 259 298 5,100 -1,380 Descending FlightAware
09:13PM 22.3690 113.4610 172° South 258 297 4,900 -1,500 Descending FlightAware
09:14PM 22.3360 113.4620 178° South 256 295 4,200 -1,500 Descending FlightAware
09:14PM 22.3100 113.4630 178° South 253 291 3,700 -1,020 Descending FlightAware
09:15PM 22.2780 113.4640 178° South 235 270 3,400 -660 Descending FlightAware
09:15PM 22.2490 113.4660 176° South 218 251 3,100 -600 Descending FlightAware
09:15PM 22.2370 113.4660 180° South 211 243 3,000 -600 Descending FlightAware
09:16PM 22.2110 113.4710 170° South 202 232 2,700 -360 Descending FlightAware
09:16PM 22.1880 113.4810 158° South 188 216 2,700  Level FlightAware
09:17PM 22.1660 113.4920 155° Southeast 182 209 2,700  Level FlightAware
09:17PM 22.1440 113.5000 161° South 174 200 2,700  Level FlightAware
09:18PM 22.1220 113.4980 185° South 173 199 2,700 -180 Level FlightAware
09:18PM 22.1130 113.4900 219° Southwest 162 186 2,600 -840 Descending FlightAware
09:18PM 22.1020 113.4780 225° Southwest 155 178 2,200 -480 Descending FlightAware
09:19PM 22.0900 113.4650 225° Southwest 155 178 2,200  Level FlightAware
09:21PM 22.0067 113.3764 225° Southwest  Level Estimated
09:22PM 22.0067 113.3764 197° South  Level Estimated
09:23PM 22.0067 113.3764 197° South  Level Estimated
09:24PM 22.0067 113.3764 197° South  Level Estimated
09:25PM 22.0067 113.3764 197° South  Level Estimated
09:26PM 22.0067 113.3764 197° South  Level Estimated
09:27PM 22.0067 113.3764 197° South  Level Estimated